Time;durP1;ratioP1;P1;durP2;ratioP2;P2;SDS_P1;SDS_P2;PMS_P1;PMS_P2;Temp;Humidity;BMP_temperature;BMP_pressure;BME280_temperature;BME280_humidity;BME280_pressure;Samples;Min_cycle;Max_cycle;Signal;HPM_P1;HPM_P2
2023/01/08 00:01:18;;;;;;;13.02;6.55;;;;;;;1.39;95.21;95186.72;5135431;27;20212;-83
2023/01/08 00:03:45;;;;;;;9.57;4.80;;;;;;;1.40;95.29;95180.31;5133827;27;20236;-82
2023/01/08 00:06:15;;;;;;;13.20;4.50;;;;;;;1.45;95.52;95174.22;5128891;27;20201;-82
2023/01/08 00:08:41;;;;;;;17.50;6.55;;;;;;;1.50;95.26;95170.78;5132119;27;20293;-82
2023/01/08 00:11:09;;;;;;;12.70;5.47;;;;;;;1.55;95.34;95170.81;5133253;27;20201;-84
2023/01/08 00:13:36;;;;;;;36.33;17.52;;;;;;;1.45;95.02;95168.09;5132262;27;20201;-83
2023/01/08 00:16:05;;;;;;;35.05;16.55;;;;;;;1.38;94.87;95174.44;5121637;27;20197;-82
2023/01/08 00:18:32;;;;;;;29.55;15.60;;;;;;;1.34;95.33;95175.22;5117838;27;20253;-82
2023/01/08 00:20:59;;;;;;;12.85;5.68;;;;;;;1.29;95.35;95173.31;5113065;27;20205;-83
2023/01/08 00:23:26;;;;;;;13.00;5.22;;;;;;;1.29;95.52;95167.16;5114765;27;20279;-84
2023/01/08 00:25:53;;;;;;;9.68;4.68;;;;;;;1.33;95.13;95176.28;5132129;27;20709;-82
2023/01/08 00:28:20;;;;;;;10.35;5.10;;;;;;;1.26;95.00;95171.16;5132256;27;20541;-82
2023/01/08 00:30:47;;;;;;;10.52;4.75;;;;;;;1.31;95.09;95173.06;5130662;27;20284;-83
2023/01/08 00:33:15;;;;;;;5.32;3.67;;;;;;;1.26;94.91;95165.81;5132557;27;20363;-83
2023/01/08 00:35:43;;;;;;;9.75;5.30;;;;;;;1.32;95.16;95170.13;5104215;28;20224;-82
2023/01/08 00:38:09;;;;;;;36.58;17.33;;;;;;;1.34;95.23;95172.56;5116857;27;20193;-84
2023/01/08 00:40:37;;;;;;;13.57;5.25;;;;;;;1.32;94.17;95172.00;5128361;27;20193;-82
2023/01/08 00:43:04;;;;;;;11.15;6.45;;;;;;;1.17;94.62;95172.69;5125353;27;20312;-82
2023/01/08 00:45:31;;;;;;;9.20;5.38;;;;;;;1.12;94.79;95174.50;5131713;27;20208;-82
2023/01/08 00:47:58;;;;;;;6.45;4.40;;;;;;;1.16;95.54;95171.06;5128821;27;20208;-82
2023/01/08 00:50:26;;;;;;;14.85;4.38;;;;;;;1.23;94.94;95171.66;5131572;27;20213;-82
2023/01/08 00:52:53;;;;;;;11.13;5.55;;;;;;;1.02;94.90;95175.22;5132140;27;20219;-82
2023/01/08 00:55:20;;;;;;;10.43;4.72;;;;;;;1.02;95.30;95167.22;5121720;27;20201;-82
2023/01/08 00:57:46;;;;;;;14.77;5.22;;;;;;;0.92;95.09;95175.16;5116181;27;20196;-82
2023/01/08 01:00:16;;;;;;;9.43;5.15;;;;;;;0.94;96.06;95178.38;5128458;27;20719;-82
2023/01/08 01:02:43;;;;;;;8.75;4.30;;;;;;;0.85;95.87;95179.88;5113488;27;20229;-83
2023/01/08 01:05:14;;;;;;;9.85;5.68;;;;;;;0.74;96.55;95183.50;5121794;27;20209;-83
2023/01/08 01:07:45;;;;;;;22.05;7.07;;;;;;;0.73;97.06;95176.56;5126584;27;20186;-82
2023/01/08 01:10:17;;;;;;;9.98;4.25;;;;;;;0.82;97.29;95183.06;5129981;27;20207;-82
2023/01/08 01:12:44;;;;;;;10.73;5.65;;;;;;;0.76;96.97;95178.72;5131950;27;20278;-82
2023/01/08 01:15:14;;;;;;;8.70;5.43;;;;;;;0.80;97.05;95172.66;5128105;27;20543;-82
2023/01/08 01:17:43;;;;;;;10.50;5.13;;;;;;;0.83;96.85;95173.97;5118717;27;20193;-84
2023/01/08 01:20:13;;;;;;;15.52;5.82;;;;;;;0.76;96.95;95170.72;5129017;27;20659;-82
2023/01/08 01:22:41;;;;;;;13.68;7.13;;;;;;;0.88;97.21;95174.84;5130715;27;20216;-83
2023/01/08 01:25:10;;;;;;;10.23;4.55;;;;;;;0.86;96.95;95165.47;5131151;27;20253;-83
2023/01/08 01:27:36;;;;;;;11.25;5.18;;;;;;;0.87;96.75;95165.22;5131070;27;20205;-82
2023/01/08 01:30:04;;;;;;;39.70;18.10;;;;;;;0.76;95.65;95168.88;5130229;27;20193;-81
2023/01/08 01:32:31;;;;;;;41.05;19.48;;;;;;;0.86;95.14;95168.16;5121655;27;20220;-83
2023/01/08 01:34:58;;;;;;;41.13;19.10;;;;;;;0.86;94.66;95171.63;5113688;27;20212;-83
2023/01/08 01:37:25;;;;;;;10.38;4.95;;;;;;;0.82;95.47;95167.06;5121662;27;20209;-83
2023/01/08 01:39:51;;;;;;;14.38;5.78;;;;;;;0.84;96.21;95156.94;5126758;27;20193;-84
2023/01/08 01:45:01;;;;;;;24.95;7.72;;;;;;;0.84;96.21;95162.25;5109805;28;20288;-83
2023/01/08 01:47:32;;;;;;;10.20;4.88;;;;;;;0.82;96.38;95165.19;5122683;27;20697;-82
2023/01/08 01:50:03;;;;;;;8.85;5.22;;;;;;;0.83;95.05;95165.97;5116475;27;20566;-83
2023/01/08 01:52:33;;;;;;;13.90;5.45;;;;;;;0.78;95.19;95157.97;5115270;27;20780;-82
2023/01/08 01:55:01;;;;;;;14.05;6.75;;;;;;;0.78;94.60;95160.63;5109905;28;20185;-82
2023/01/08 01:57:31;;;;;;;13.93;6.00;;;;;;;0.70;95.05;95156.53;5116155;27;20256;-82
2023/01/08 01:59:59;;;;;;;13.60;5.05;;;;;;;0.65;94.95;95159.19;5121733;27;20201;-82
2023/01/08 02:02:25;;;;;;;10.07;6.22;;;;;;;0.64;94.66;95152.22;5123415;27;20196;-82
2023/01/08 02:04:52;;;;;;;15.32;5.57;;;;;;;0.61;94.58;95153.53;5118715;27;20232;-82
2023/01/08 02:07:26;;;;;;;11.65;5.68;;;;;;;0.59;94.43;95150.31;5116309;27;20251;-83
2023/01/08 02:10:10;;;;;;;10.73;5.28;;;;;;;0.58;95.19;95140.72;5120441;27;20194;-83
2023/01/08 02:12:44;;;;;;;34.83;16.70;;;;;;;0.59;95.15;95144.97;5123916;27;20190;-82
2023/01/08 02:15:18;;;;;;;8.80;4.32;;;;;;;0.63;95.12;95140.75;5123576;27;20201;-82
2023/01/08 02:17:57;;;;;;;10.52;5.60;;;;;;;0.50;95.12;95145.69;5118889;27;20185;-83
2023/01/08 02:20:31;;;;;;;9.30;4.95;;;;;;;0.63;95.98;95135.44;5112472;27;20225;-83
2023/01/08 02:23:15;;;;;;;10.38;3.85;;;;;;;0.79;96.56;95143.56;5109940;28;20217;-82
2023/01/08 02:26:10;;;;;;;4.78;3.40;;;;;;;0.74;95.27;95132.84;5116832;28;20649;-82
2023/01/08 02:28:44;;;;;;;9.73;4.38;;;;;;;0.73;95.35;95134.72;5116827;28;20189;-83
2023/01/08 02:31:12;;;;;;;8.60;3.90;;;;;;;0.66;95.10;95134.94;5117288;28;20193;-82
2023/01/08 02:33:40;;;;;;;8.52;3.60;;;;;;;0.61;94.44;95129.53;5123088;28;20293;-83
2023/01/08 02:36:32;;;;;;;8.73;4.78;;;;;;;0.54;94.26;95136.97;5122782;28;20273;-83
2023/01/08 02:39:40;;;;;;;7.32;3.47;;;;;;;0.51;94.34;95121.47;5106459;28;20197;-82
2023/01/08 02:42:13;;;;;;;9.73;4.22;;;;;;;0.48;94.00;95129.97;5100550;28;20254;-82
2023/01/08 02:44:55;;;;;;;5.60;3.38;;;;;;;0.46;93.65;95133.94;5111793;28;20217;-81
2023/01/08 02:47:27;;;;;;;5.22;2.53;;;;;;;0.40;93.62;95118.97;5118672;28;20201;-82
2023/01/08 02:50:02;;;;;;;11.98;4.88;;;;;;;0.43;93.52;95113.91;5115663;28;20221;-81
2023/01/08 02:52:32;;;;;;;8.35;4.10;;;;;;;0.47;93.65;95115.03;5129915;28;20265;-81
2023/01/08 02:55:02;;;;;;;5.07;3.50;;;;;;;0.45;94.13;95111.81;5116669;28;20208;-81
2023/01/08 02:57:33;;;;;;;6.25;3.20;;;;;;;0.57;93.91;95108.97;5125718;28;20209;-81
2023/01/08 03:00:00;;;;;;;19.80;10.60;;;;;;;0.59;93.77;95112.19;5118214;27;20663;-81
2023/01/08 03:02:31;;;;;;;20.88;10.98;;;;;;;0.53;94.23;95116.69;5118415;27;20198;-81
2023/01/08 03:05:06;;;;;;;5.53;3.03;;;;;;;0.56;93.59;95118.81;5123713;27;20209;-81
2023/01/08 03:07:33;;;;;;;6.00;3.47;;;;;;;0.46;93.20;95126.75;5127038;27;20189;-81
2023/01/08 03:10:00;;;;;;;6.75;3.10;;;;;;;0.36;93.85;95126.66;5124632;27;20193;-81
2023/01/08 03:12:43;;;;;;;6.45;3.03;;;;;;;0.46;94.59;95126.75;5120406;27;20554;-82
2023/01/08 03:15:14;;;;;;;9.00;3.78;;;;;;;0.57;95.82;95125.78;5120230;27;20731;-81
2023/01/08 03:17:45;;;;;;;6.88;2.33;;;;;;;0.56;95.37;95129.50;5113373;28;20235;-81
2023/01/08 03:20:16;;;;;;;5.13;3.40;;;;;;;0.65;95.36;95128.00;5114231;27;20290;-81
2023/01/08 03:22:47;;;;;;;5.75;2.88;;;;;;;0.65;95.57;95138.66;5124902;27;20621;-81
2023/01/08 03:25:15;;;;;;;9.10;2.97;;;;;;;0.55;94.16;95132.41;5115652;27;20372;-81
2023/01/08 03:27:47;;;;;;;8.95;3.38;;;;;;;0.36;93.92;95129.31;5123139;27;20258;-81
2023/01/08 03:30:17;;;;;;;3.58;3.05;;;;;;;0.47;91.47;95133.69;5126702;27;20189;-81
2023/01/08 03:32:45;;;;;;;6.53;3.28;;;;;;;0.17;92.70;95141.34;5124043;27;20207;-81
2023/01/08 03:35:16;;;;;;;6.95;2.75;;;;;;;0.05;93.85;95138.03;5119443;27;20209;-82
2023/01/08 03:37:49;;;;;;;7.18;3.00;;;;;;;0.09;94.59;95137.28;5133168;27;20197;-81
2023/01/08 03:40:20;;;;;;;5.63;3.65;;;;;;;0.11;94.93;95131.72;5119048;27;20209;-82
2023/01/08 03:42:49;;;;;;;23.40;11.80;;;;;;;0.15;95.26;95130.94;5133462;27;20193;-80
2023/01/08 03:45:15;;;;;;;23.48;12.27;;;;;;;0.18;95.44;95129.63;5126018;27;20221;-80
2023/01/08 03:47:44;;;;;;;25.55;11.23;;;;;;;0.20;95.44;95124.88;5113132;27;20243;-81
2023/01/08 03:50:17;;;;;;;24.17;11.25;;;;;;;0.13;95.75;95126.94;5133131;27;20229;-80
2023/01/08 03:52:44;;;;;;;24.48;12.38;;;;;;;0.28;96.60;95127.06;5118682;27;20656;-80
2023/01/08 03:55:11;;;;;;;6.85;4.15;;;;;;;0.08;96.00;95113.56;5122956;27;20816;-80
2023/01/08 03:57:38;;;;;;;6.35;3.58;;;;;;;0.25;96.06;95127.59;5118740;27;20190;-82
2023/01/08 04:00:07;;;;;;;4.40;2.55;;;;;;;0.30;95.78;95123.13;5132968;27;20213;-79
2023/01/08 04:02:34;;;;;;;5.80;2.88;;;;;;;0.37;95.95;95120.25;5132842;27;20205;-80
2023/01/08 04:05:01;;;;;;;10.75;3.35;;;;;;;0.36;94.88;95118.66;5122984;27;20233;-80
2023/01/08 04:07:28;;;;;;;4.63;2.83;;;;;;;0.33;94.68;95124.47;5114372;27;20205;-80
2023/01/08 04:09:54;;;;;;;22.25;12.05;;;;;;;0.35;94.38;95123.16;5132483;27;20204;-80
2023/01/08 04:12:23;;;;;;;4.05;2.88;;;;;;;0.29;93.26;95128.69;5118405;27;20667;-81
2023/01/08 04:14:50;;;;;;;4.00;3.35;;;;;;;0.16;93.02;95129.09;5122997;27;20201;-81
2023/01/08 04:17:18;;;;;;;5.68;2.78;;;;;;;0.17;94.01;95136.81;5114804;27;20611;-81
2023/01/08 04:19:45;;;;;;;14.30;4.63;;;;;;;0.25;94.86;95127.59;5122453;27;20275;-81
2023/01/08 04:22:12;;;;;;;9.60;3.70;;;;;;;0.36;95.34;95121.31;5115056;27;20217;-81
2023/01/08 04:24:39;;;;;;;4.82;2.50;;;;;;;0.38;95.37;95132.53;5131978;27;20236;-81
2023/01/08 04:27:06;;;;;;;8.95;3.17;;;;;;;0.39;94.89;95126.16;5132137;27;20262;-81
2023/01/08 04:29:32;;;;;;;22.80;12.05;;;;;;;0.30;95.04;95135.63;5121262;27;20198;-81
2023/01/08 04:32:00;;;;;;;23.63;11.60;;;;;;;0.22;93.90;95123.56;5116063;27;20417;-81
2023/01/08 04:34:28;;;;;;;20.10;10.55;;;;;;;0.13;93.71;95135.75;5132123;27;20205;-81
2023/01/08 04:36:55;;;;;;;7.57;3.45;;;;;;;0.10;93.75;95136.22;5127061;27;20584;-81
2023/01/08 04:39:21;;;;;;;4.03;2.55;;;;;;;-0.08;94.29;95148.00;5123000;27;20200;-81
2023/01/08 04:41:48;;;;;;;25.40;11.95;;;;;;;-0.15;95.44;95142.06;5118187;27;20272;-81
2023/01/08 04:44:15;;;;;;;22.52;11.55;;;;;;;-0.24;96.11;95140.88;5131965;27;20221;-81
2023/01/08 04:46:42;;;;;;;31.40;12.75;;;;;;;-0.10;97.05;95139.44;5118009;27;20201;-81
2023/01/08 04:49:09;;;;;;;22.17;11.40;;;;;;;-0.09;97.12;95138.41;5122290;27;20224;-81
2023/01/08 04:51:38;;;;;;;5.90;3.88;;;;;;;-0.03;96.65;95137.41;5131619;27;20205;-82
2023/01/08 04:54:05;;;;;;;5.80;3.03;;;;;;;0.06;96.51;95139.63;5117906;27;20577;-81
2023/01/08 04:56:32;;;;;;;5.53;2.83;;;;;;;-0.16;96.31;95137.78;5115386;27;20539;-81
2023/01/08 04:58:59;;;;;;;4.65;2.78;;;;;;;-0.13;96.93;95145.25;5124531;27;20208;-81
2023/01/08 05:01:27;;;;;;;4.82;3.00;;;;;;;-0.19;96.71;95138.28;5110935;28;20190;-81
2023/01/08 05:03:55;;;;;;;10.07;3.15;;;;;;;-0.10;96.42;95141.31;5125147;27;20241;-81
2023/01/08 05:06:22;;;;;;;4.78;2.95;;;;;;;-0.01;96.59;95145.16;5118536;27;20201;-82
2023/01/08 05:08:50;;;;;;;6.25;2.78;;;;;;;-0.21;95.99;95145.72;5117162;27;20209;-81
2023/01/08 05:11:17;;;;;;;22.40;11.70;;;;;;;-0.18;96.71;95149.75;5119125;27;20720;-81
2023/01/08 05:13:43;;;;;;;99.97;38.95;;;;;;;-0.07;95.51;95146.94;5118068;27;20258;-80
2023/01/08 05:16:10;;;;;;;24.00;12.27;;;;;;;-0.19;95.32;95142.81;5123692;27;20201;-80
2023/01/08 05:18:37;;;;;;;23.13;10.80;;;;;;;-0.13;94.91;95144.47;5125098;27;20289;-79
2023/01/08 05:21:05;;;;;;;29.05;12.73;;;;;;;-0.06;94.63;95143.22;5119706;27;20220;-80
2023/01/08 05:23:32;;;;;;;20.90;11.13;;;;;;;-0.15;94.75;95144.72;5117813;27;20293;-80
2023/01/08 05:26:02;;;;;;;24.88;12.07;;;;;;;-0.16;94.40;95148.44;5123759;27;20607;-80
2023/01/08 05:28:29;;;;;;;5.90;2.75;;;;;;;-0.24;94.57;95146.19;5124543;27;20799;-81
2023/01/08 05:30:57;;;;;;;5.15;3.35;;;;;;;-0.19;94.90;95148.94;5120358;27;20258;-80
2023/01/08 05:33:24;;;;;;;3.70;2.60;;;;;;;-0.16;94.49;95148.44;5117531;27;20669;-80
2023/01/08 05:35:51;;;;;;;5.72;2.95;;;;;;;-0.16;94.64;95148.44;5131386;27;20232;-81
2023/01/08 05:38:18;;;;;;;7.28;3.05;;;;;;;-0.13;94.18;95147.13;5117428;27;20208;-81
2023/01/08 05:40:45;;;;;;;4.07;2.90;;;;;;;-0.15;93.74;95147.41;5121028;27;20205;-81
2023/01/08 05:43:14;;;;;;;5.03;2.75;;;;;;;-0.12;93.60;95154.88;5124379;27;20274;-81
2023/01/08 05:45:40;;;;;;;5.90;2.88;;;;;;;-0.17;93.70;95160.16;5111279;28;20254;-81
2023/01/08 05:48:08;;;;;;;6.72;2.50;;;;;;;-0.06;94.15;95151.22;5124531;27;20201;-81
2023/01/08 05:50:35;;;;;;;4.70;2.85;;;;;;;-0.09;94.27;95149.03;5122225;27;20217;-81
2023/01/08 05:53:06;;;;;;;6.57;2.45;;;;;;;-0.21;94.77;95140.38;5126369;27;20597;-80
2023/01/08 05:55:33;;;;;;;11.48;3.40;;;;;;;-0.16;95.00;95148.44;5123140;27;20303;-81
2023/01/08 05:58:01;;;;;;;8.20;2.90;;;;;;;-0.12;94.81;95149.53;5116677;27;20736;-81
2023/01/08 06:00:30;;;;;;;6.18;3.13;;;;;;;-0.06;94.85;95145.91;5117761;27;20636;-81
2023/01/08 06:02:57;;;;;;;9.77;3.28;;;;;;;-0.04;94.35;95146.47;5123393;27;20614;-81
2023/01/08 06:05:24;;;;;;;6.03;2.88;;;;;;;-0.03;94.45;95148.06;5124010;27;20197;-81
2023/01/08 06:07:51;;;;;;;3.85;2.85;;;;;;;0.01;93.01;95148.34;5109447;28;20206;-81
2023/01/08 06:10:18;;;;;;;5.55;3.05;;;;;;;-0.17;93.24;95157.47;5124671;27;20255;-81
2023/01/08 06:12:45;;;;;;;7.78;3.30;;;;;;;-0.23;94.48;95163.78;5118606;28;20223;-81
2023/01/08 06:15:12;;;;;;;6.57;2.92;;;;;;;-0.10;94.37;95163.41;5118113;27;20249;-81
2023/01/08 06:17:41;;;;;;;4.28;2.38;;;;;;;0.10;93.52;95156.72;5124534;27;20281;-80
2023/01/08 06:20:09;;;;;;;4.35;2.60;;;;;;;0.28;93.73;95159.03;5112098;27;20711;-80
2023/01/08 06:22:35;;;;;;;9.20;3.20;;;;;;;0.89;93.52;95154.31;5123407;27;20221;-81
2023/01/08 06:25:02;;;;;;;9.05;3.83;;;;;;;1.62;91.91;95147.38;5124767;28;20209;-81
2023/01/08 06:27:29;;;;;;;8.10;3.13;;;;;;;2.19;88.85;95147.34;5110957;28;20250;-81
2023/01/08 06:29:56;;;;;;;3.30;2.22;;;;;;;2.56;84.53;95141.84;5112890;28;20197;-80
2023/01/08 06:32:25;;;;;;;8.38;3.22;;;;;;;2.69;83.22;95152.03;5134399;28;20270;-79
2023/01/08 06:34:53;;;;;;;5.78;4.15;;;;;;;2.64;84.25;95154.69;5116863;28;20229;-81
2023/01/08 06:37:20;;;;;;;6.25;2.70;;;;;;;2.38;85.08;95158.38;5125100;27;20205;-82
2023/01/08 06:40:03;;;;;;;6.13;3.40;;;;;;;1.98;83.93;95156.34;5128064;27;20241;-81
2023/01/08 06:42:30;;;;;;;4.18;2.47;;;;;;;1.77;85.59;95160.81;5123543;27;20197;-80
2023/01/08 06:44:57;;;;;;;4.70;2.60;;;;;;;1.67;86.35;95171.41;5120274;27;20205;-82
2023/01/08 06:47:26;;;;;;;11.38;3.63;;;;;;;1.52;87.07;95171.31;5122872;27;20691;-81
2023/01/08 06:49:55;;;;;;;5.80;3.33;;;;;;;1.34;88.51;95173.34;5129538;27;20217;-81
2023/01/08 06:52:22;;;;;;;4.13;2.58;;;;;;;1.33;89.39;95179.75;5128126;27;20324;-81
2023/01/08 06:54:49;;;;;;;13.77;4.15;;;;;;;1.41;89.80;95168.59;5114341;27;20744;-81
2023/01/08 06:57:15;;;;;;;6.10;3.92;;;;;;;1.40;90.19;95172.31;5120175;27;20471;-80
2023/01/08 06:59:42;;;;;;;14.50;5.47;;;;;;;1.43;90.51;95171.81;5127664;27;20206;-80
2023/01/08 07:02:21;;;;;;;3.30;2.50;;;;;;;1.49;89.39;95170.00;5127587;27;20197;-81
2023/01/08 07:04:48;;;;;;;7.32;3.25;;;;;;;1.30;90.24;95176.78;5126377;27;20197;-80
2023/01/08 07:07:16;;;;;;;10.18;3.58;;;;;;;1.29;90.91;95175.97;5126814;27;20201;-81
2023/01/08 07:09:43;;;;;;;6.35;4.00;;;;;;;1.19;92.27;95181.25;5122269;27;20261;-82
2023/01/08 07:12:12;;;;;;;14.13;4.78;;;;;;;1.37;92.29;95178.16;5134616;27;20250;-80
2023/01/08 07:14:39;;;;;;;8.35;3.97;;;;;;;4.25;100.00;95179.72;5124965;27;20233;-75
2023/01/08 07:17:06;;;;;;;6.47;4.03;;;;;;;5.53;100.00;95163.63;5127373;27;20209;-77
2023/01/08 07:19:33;;;;;;;4.68;3.10;;;;;;;5.30;100.00;95167.84;5122416;27;20236;-78
2023/01/08 07:22:00;;;;;;;18.48;6.57;;;;;;;5.05;90.94;95173.41;5119531;27;20229;-79
2023/01/08 07:24:29;;;;;;;11.48;4.57;;;;;;;4.19;91.12;95175.47;5123902;27;20213;-79
2023/01/08 07:26:56;;;;;;;19.73;4.50;;;;;;;3.72;94.10;95181.19;5116851;27;20348;-78
2023/01/08 07:29:23;;;;;;;8.45;4.78;;;;;;;3.51;94.68;95185.00;5133696;27;20208;-79
2023/01/08 07:31:50;;;;;;;10.90;4.40;;;;;;;3.37;95.54;95168.66;5116160;27;20201;-79
2023/01/08 07:34:19;;;;;;;8.48;4.03;;;;;;;2.72;90.49;95175.59;5123587;27;20264;-79
2023/01/08 07:37:04;;;;;;;10.05;3.70;;;;;;;2.64;90.12;95178.75;5119463;27;20292;-81
2023/01/08 07:39:33;;;;;;;12.45;4.28;;;;;;;2.56;89.23;95190.00;5126519;27;20193;-78
2023/01/08 07:41:59;;;;;;;8.48;4.55;;;;;;;2.87;92.35;95184.72;5120546;27;20241;-78
2023/01/08 07:44:32;;;;;;;12.20;5.43;;;;;;;2.73;89.65;95190.53;5118886;27;20202;-81
2023/01/08 07:46:59;;;;;;;6.03;3.97;;;;;;;2.89;88.52;95187.91;5120588;27;20232;-79
2023/01/08 07:49:26;;;;;;;7.10;4.18;;;;;;;3.06;88.31;95189.28;5131330;27;20221;-78
2023/01/08 07:51:52;;;;;;;9.65;4.93;;;;;;;2.94;87.58;95190.59;5113025;28;20294;-79
2023/01/08 07:54:19;;;;;;;8.13;3.20;;;;;;;3.04;87.34;95190.59;5128244;27;20675;-79
2023/01/08 07:56:47;;;;;;;5.45;3.13;;;;;;;2.72;84.06;95183.63;5128742;27;20767;-79
2023/01/08 07:59:14;;;;;;;4.53;2.20;;;;;;;2.26;83.44;95196.03;5123674;27;20647;-79
2023/01/08 08:01:41;;;;;;;8.50;2.72;;;;;;;1.96;85.04;95202.03;5131378;27;20189;-79
2023/01/08 08:04:08;;;;;;;3.47;1.70;;;;;;;2.00;85.25;95197.78;5129778;27;20253;-79
2023/01/08 08:06:34;;;;;;;2.70;1.27;;;;;;;2.10;85.10;95197.03;5129362;27;20196;-76
2023/01/08 08:09:02;;;;;;;1.33;1.23;;;;;;;2.20;85.55;95196.25;5126005;27;20274;-80
2023/01/08 08:11:29;;;;;;;3.47;1.58;;;;;;;2.36;84.82;95195.25;5123800;27;20197;-79
2023/01/08 08:13:57;;;;;;;4.05;2.47;;;;;;;2.49;84.21;95194.75;5121821;27;20194;-79
2023/01/08 08:16:24;;;;;;;1.67;1.52;;;;;;;2.53;83.76;95193.19;5116129;27;20233;-83
2023/01/08 08:18:50;;;;;;;4.60;1.33;;;;;;;2.66;85.43;95190.00;5118992;27;20228;-78
2023/01/08 08:21:17;;;;;;;2.65;1.95;;;;;;;2.99;85.49;95191.41;5116803;27;20278;-79
2023/01/08 08:23:44;;;;;;;2.95;2.15;;;;;;;3.04;83.46;95186.06;5118574;27;20194;-80
2023/01/08 08:26:11;;;;;;;6.93;3.40;;;;;;;3.25;82.70;95194.91;5119799;27;20816;-81
2023/01/08 08:28:38;;;;;;;9.85;3.65;;;;;;;3.50;82.81;95194.09;5124170;27;20193;-77
2023/01/08 08:31:06;;;;;;;14.48;4.00;;;;;;;3.61;82.89;95189.53;5125404;27;20194;-79
2023/01/08 08:33:33;;;;;;;7.13;3.95;;;;;;;3.49;81.21;95187.94;5121285;27;20205;-78
2023/01/08 08:36:00;;;;;;;6.25;3.58;;;;;;;3.61;81.85;95184.97;5123558;27;20234;-81
2023/01/08 08:38:26;;;;;;;4.60;3.15;;;;;;;3.54;81.99;95185.25;5121607;27;20733;-79
2023/01/08 08:40:53;;;;;;;5.07;3.38;;;;;;;3.63;80.88;95188.19;5125328;27;20201;-81
2023/01/08 08:43:20;;;;;;;3.00;2.30;;;;;;;3.73;81.22;95187.38;5125904;27;20201;-82
2023/01/08 08:45:47;;;;;;;3.70;2.42;;;;;;;3.89;80.39;95196.97;5126237;27;20329;-81
2023/01/08 08:48:15;;;;;;;5.40;2.88;;;;;;;3.91;79.53;95178.75;5118735;27;20222;-82
2023/01/08 08:50:42;;;;;;;3.42;2.10;;;;;;;3.99;79.75;95180.06;5124385;27;20224;-81
2023/01/08 08:53:10;;;;;;;3.53;2.75;;;;;;;4.06;79.04;95184.09;5119124;27;20201;-80
2023/01/08 08:55:37;;;;;;;4.95;2.45;;;;;;;4.28;79.15;95184.53;5124107;27;20308;-83
2023/01/08 08:58:05;;;;;;;12.65;5.55;;;;;;;4.21;79.65;95184.03;5126952;27;20205;-79
2023/01/08 09:00:32;;;;;;;7.93;4.05;;;;;;;4.19;79.83;95186.19;5121987;27;20250;-84
2023/01/08 09:02:59;;;;;;;15.40;5.65;;;;;;;4.29;79.68;95186.13;5122269;27;20194;-80
2023/01/08 09:05:29;;;;;;;14.88;5.85;;;;;;;4.26;79.62;95181.31;5120508;27;20197;-84
2023/01/08 09:07:56;;;;;;;6.72;4.57;;;;;;;4.27;79.72;95177.56;5121884;27;20200;-85
2023/01/08 09:10:23;;;;;;;15.00;8.05;;;;;;;4.29;79.86;95180.78;5118589;27;20626;-80
2023/01/08 09:12:50;;;;;;;7.93;5.35;;;;;;;4.23;80.12;95176.53;5121632;27;20591;-81
2023/01/08 09:15:17;;;;;;;14.45;5.60;;;;;;;4.20;80.79;95182.44;5118776;27;20228;-82
2023/01/08 09:17:44;;;;;;;13.73;6.57;;;;;;;4.31;81.00;95172.47;5120271;27;20253;-81
2023/01/08 09:20:11;;;;;;;15.18;7.88;;;;;;;4.46;80.03;95168.91;5117466;27;20226;-80
2023/01/08 09:22:48;;;;;;;18.08;7.25;;;;;;;4.54;80.21;95173.69;5126548;27;20197;-83
2023/01/08 09:25:15;;;;;;;12.68;7.72;;;;;;;4.61;79.55;95166.16;5124652;27;20198;-82
2023/01/08 09:27:42;;;;;;;12.77;6.57;;;;;;;4.86;79.23;95157.94;5126660;27;20250;-81
2023/01/08 09:30:09;;;;;;;16.10;8.63;;;;;;;4.90;78.15;95156.31;5121375;27;20205;-81
2023/01/08 09:32:38;;;;;;;8.43;4.55;;;;;;;4.85;78.07;95150.97;5122424;27;20189;-79
2023/01/08 09:35:05;;;;;;;23.35;12.60;;;;;;;4.94;77.93;95149.28;5120469;27;20702;-80
2023/01/08 09:37:32;;;;;;;16.55;6.60;;;;;;;5.00;77.49;95137.47;5122326;27;20197;-80
2023/01/08 09:40:00;;;;;;;13.20;8.02;;;;;;;5.12;77.55;95139.78;5120940;27;20205;-80
2023/01/08 09:45:43;;;;;;;17.92;9.55;;;;;;;5.34;76.17;95110.56;5088782;27;20212;-86
2023/01/08 09:50:57;;;;;;;16.30;8.73;;;;;;;5.61;76.31;95131.53;5118764;27;20204;-86
2023/01/08 09:53:24;;;;;;;21.65;8.57;;;;;;;5.43;75.78;95108.09;5119759;27;20202;-81
2023/01/08 09:55:58;;;;;;;23.00;8.18;;;;;;;5.42;75.54;95095.75;5118281;27;20311;-81
2023/01/08 09:58:34;;;;;;;12.98;6.88;;;;;;;5.55;75.71;95097.75;5121279;27;20794;-79
2023/01/08 10:01:05;;;;;;;14.50;9.15;;;;;;;5.78;75.64;95092.69;5120187;27;20271;-80
2023/01/08 10:03:41;;;;;;;14.50;7.60;;;;;;;5.98;76.43;95098.69;5120072;27;20189;-80
2023/01/08 10:06:13;;;;;;;13.07;7.57;;;;;;;6.27;74.62;95090.53;5119233;27;20567;-79
2023/01/08 10:08:40;;;;;;;18.33;8.20;;;;;;;6.33;72.59;95089.34;5121779;27;20185;-80
2023/01/08 10:11:10;;;;;;;11.18;6.90;;;;;;;6.31;72.71;95086.16;5123226;27;20196;-79
2023/01/08 10:13:41;;;;;;;17.15;7.25;;;;;;;6.52;72.70;95083.19;5133655;27;20189;-84
2023/01/08 10:16:11;;;;;;;8.70;5.80;;;;;;;6.54;71.78;95081.03;5128256;27;20257;-83
2023/01/08 10:18:40;;;;;;;12.77;7.10;;;;;;;6.54;72.55;95073.75;5126938;27;20719;-80
2023/01/08 10:21:13;;;;;;;14.32;6.82;;;;;;;6.73;71.74;95073.72;5090089;28;20760;-80
2023/01/08 10:23:49;;;;;;;15.38;6.65;;;;;;;6.94;72.65;95063.47;5099951;28;20190;-79
2023/01/08 10:26:27;;;;;;;23.33;8.73;;;;;;;7.16;71.06;95065.50;5100980;28;20225;-80
2023/01/08 10:29:07;;;;;;;10.82;5.07;;;;;;;6.91;69.48;95061.34;5090566;28;20202;-80
2023/01/08 10:31:34;;;;;;;13.90;7.63;;;;;;;6.94;69.66;95066.94;5090970;28;20255;-80
2023/01/08 10:34:10;;;;;;;18.55;7.13;;;;;;;6.97;70.03;95055.56;5110290;28;20906;-79
2023/01/08 10:36:39;;;;;;;22.10;8.30;;;;;;;7.12;70.49;95047.25;5096582;28;20217;-80
2023/01/08 10:39:07;;;;;;;17.67;8.85;;;;;;;7.34;69.73;95043.13;5098417;28;20198;-82
2023/01/08 10:41:39;;;;;;;9.85;5.50;;;;;;;7.17;68.85;95042.88;5104934;28;20205;-78
2023/01/08 10:44:15;;;;;;;15.35;6.78;;;;;;;7.18;69.82;95034.50;5096972;28;20649;-80
2023/01/08 10:46:43;;;;;;;18.48;8.07;;;;;;;7.32;68.93;95034.53;5100823;28;20198;-80
2023/01/08 10:49:19;;;;;;;10.77;6.93;;;;;;;7.41;68.17;95032.72;5096375;28;20210;-80
2023/01/08 10:51:50;;;;;;;13.68;7.28;;;;;;;7.43;67.81;95027.84;5102149;28;20190;-78
2023/01/08 10:54:29;;;;;;;11.63;6.40;;;;;;;7.37;68.40;95020.97;5101370;28;20213;-82
2023/01/08 10:56:58;;;;;;;13.60;7.53;;;;;;;7.54;71.21;95020.38;5093427;28;20217;-80
2023/01/08 10:59:25;;;;;;;22.55;13.18;;;;;;;7.68;67.76;95015.78;5101776;28;20300;-78
2023/01/08 11:01:54;;;;;;;17.92;9.40;;;;;;;7.61;67.50;95016.19;5098219;28;20289;-79
2023/01/08 11:04:26;;;;;;;24.02;12.95;;;;;;;7.63;67.85;95008.63;5105940;28;20206;-80
2023/01/08 11:06:58;;;;;;;16.45;9.82;;;;;;;7.92;67.87;95004.81;5099924;28;20194;-80
2023/01/08 11:09:29;;;;;;;13.82;6.88;;;;;;;8.11;65.98;95013.56;5090384;28;20199;-80
2023/01/08 11:11:58;;;;;;;12.63;6.95;;;;;;;8.19;66.45;94997.47;5089489;28;20618;-78
2023/01/08 11:14:29;;;;;;;21.80;7.10;;;;;;;9.08;72.13;94993.25;5103124;28;20224;-87
2023/01/08 11:16:58;;;;;;;11.90;6.93;;;;;;;9.20;65.00;94994.28;5110271;28;20210;-80
2023/01/08 11:19:27;;;;;;;13.10;6.97;;;;;;;8.99;62.92;94989.72;5115069;28;20328;-81
2023/01/08 11:21:56;;;;;;;17.58;7.82;;;;;;;8.87;62.93;94995.69;5127679;27;20213;-81
2023/01/08 11:24:26;;;;;;;17.55;7.95;;;;;;;9.02;63.87;94989.88;5122093;27;20691;-80
2023/01/08 11:26:57;;;;;;;16.67;8.68;;;;;;;9.09;63.67;94990.25;5125880;27;20189;-80
2023/01/08 11:29:31;;;;;;;13.80;6.07;;;;;;;9.13;62.66;94985.84;5134396;27;20192;-81
2023/01/08 11:32:09;;;;;;;13.68;6.28;;;;;;;8.72;64.01;94987.94;5127544;27;20185;-80
2023/01/08 11:34:43;;;;;;;13.25;6.10;;;;;;;8.53;64.41;94988.09;5118746;27;20201;-82
2023/01/08 11:37:17;;;;;;;15.70;7.90;;;;;;;8.48;64.45;94983.59;5122162;27;20217;-82
2023/01/08 11:39:44;;;;;;;18.35;8.98;;;;;;;8.60;65.23;94977.69;5120123;27;20309;-82
2023/01/08 11:42:27;;;;;;;20.13;8.90;;;;;;;8.61;64.59;94978.50;5123936;27;20262;-81
2023/01/08 11:45:13;;;;;;;31.55;17.13;;;;;;;8.53;65.45;94972.69;5127516;27;20197;-79
2023/01/08 11:47:58;;;;;;;18.20;7.97;;;;;;;8.67;63.96;94971.84;5113048;27;20626;-80
2023/01/08 11:50:31;;;;;;;18.85;8.75;;;;;;;8.69;64.43;94965.03;5133717;27;20193;-78
2023/01/08 11:53:13;;;;;;;29.55;16.42;;;;;;;8.64;64.03;94957.06;5122180;27;20192;-78